Time;durP1;ratioP1;P1;durP2;ratioP2;P2;SDS_P1;SDS_P2;PMS_P1;PMS_P2;Temp;Humidity;BMP_temperature;BMP_pressure;BME280_temperature;BME280_humidity;BME280_pressure;Samples;Min_cycle;Max_cycle;Signal;HPM_P1;HPM_P2
2022/07/11 00:02:15;;;;;;;8.27;2.50;;;;;;;;;;5118058;28;20044;-81
2022/07/11 00:04:42;;;;;;;5.75;0.90;;;;;;;;;;5119838;28;20499;-81
2022/07/11 00:07:09;;;;;;;1.85;0.80;;;;;;;;;;5101327;28;20070;-80
2022/07/11 00:09:35;;;;;;;3.03;0.95;;;;;;;;;;5101753;28;20016;-81
2022/07/11 00:12:02;;;;;;;2.67;1.10;;;;;;;;;;5100713;28;20043;-81
2022/07/11 00:14:28;;;;;;;5.35;1.15;;;;;;;;;;5100556;28;20035;-81
2022/07/11 00:16:54;;;;;;;5.18;1.30;;;;;;;;;;5118370;28;20046;-81
2022/07/11 00:19:21;;;;;;;4.32;1.40;;;;;;;;;;5100824;28;20039;-80
2022/07/11 00:21:47;;;;;;;9.07;1.25;;;;;;;;;;5101047;28;20040;-81
2022/07/11 00:24:13;;;;;;;11.05;1.40;;;;;;;;;;5100123;28;20498;-80
2022/07/11 00:26:39;;;;;;;5.45;1.80;;;;;;;;;;5117373;28;20039;-81
2022/07/11 00:29:05;;;;;;;4.57;1.40;;;;;;;;;;5100513;28;20039;-81
2022/07/11 00:31:31;;;;;;;2.97;1.38;;;;;;;;;;5102678;28;20031;-81
2022/07/11 00:33:59;;;;;;;4.47;1.25;;;;;;;;;;5104200;28;20068;-81
2022/07/11 00:36:26;;;;;;;5.07;1.13;;;;;;;;;;5120692;28;20066;-81
2022/07/11 00:38:52;;;;;;;7.32;1.48;;;;;;;;;;5103543;28;20062;-81
2022/07/11 00:41:19;;;;;;;4.82;1.73;;;;;;;;;;5104378;28;20032;-81
2022/07/11 00:43:54;;;;;;;2.70;1.30;;;;;;;;;;5103498;28;20042;-81
2022/07/11 00:46:20;;;;;;;10.40;1.80;;;;;;;;;;5103430;28;20027;-80
2022/07/11 00:48:46;;;;;;;6.47;2.03;;;;;;;;;;5121745;28;20032;-81
2022/07/11 00:51:12;;;;;;;4.90;1.20;;;;;;;;;;5120827;28;20084;-80
2022/07/11 00:53:40;;;;;;;9.07;1.58;;;;;;;;;;5120780;28;20035;-80
2022/07/11 00:56:09;;;;;;;5.35;2.22;;;;;;;;;;5104301;28;20062;-80
2022/07/11 00:58:35;;;;;;;9.35;1.73;;;;;;;;;;5121770;28;20042;-80
2022/07/11 01:01:05;;;;;;;10.07;2.08;;;;;;;;;;5121175;28;20495;-80
2022/07/11 01:03:34;;;;;;;8.70;2.00;;;;;;;;;;5120909;28;20031;-80
2022/07/11 01:06:00;;;;;;;7.07;2.08;;;;;;;;;;5119262;27;20034;-80
2022/07/11 01:08:31;;;;;;;9.98;2.17;;;;;;;;;;5129207;27;20035;-81
2022/07/11 01:11:00;;;;;;;6.10;1.83;;;;;;;;;;5138973;27;20031;-81
2022/07/11 01:13:26;;;;;;;10.82;1.83;;;;;;;;;;5161034;27;20031;-81
2022/07/11 01:16:17;;;;;;;8.82;1.90;;;;;;;;;;5140768;27;20125;-81
2022/07/11 01:18:50;;;;;;;7.38;1.80;;;;;;;;;;5140402;27;20039;-81
2022/07/11 01:21:24;;;;;;;5.03;1.65;;;;;;;;;;5126233;27;20035;-80
2022/07/11 01:23:52;;;;;;;7.78;2.13;;;;;;;;;;5124084;27;20039;-81
2022/07/11 01:26:19;;;;;;;7.40;1.85;;;;;;;;;;5124115;27;20037;-81
2022/07/11 01:28:44;;;;;;;4.57;1.65;;;;;;;;;;5123806;27;20075;-81
2022/07/11 01:31:11;;;;;;;8.88;1.95;;;;;;;;;;5123606;27;20438;-81
2022/07/11 01:33:36;;;;;;;4.15;1.58;;;;;;;;;;5123988;27;20034;-81
2022/07/11 01:36:02;;;;;;;9.70;1.92;;;;;;;;;;5107408;28;20409;-80
2022/07/11 01:38:28;;;;;;;5.70;2.20;;;;;;;;;;5102521;28;20031;-81
2022/07/11 01:40:55;;;;;;;2.85;1.80;;;;;;;;;;5120776;28;20047;-81
2022/07/11 01:43:22;;;;;;;7.00;1.60;;;;;;;;;;5102445;28;20050;-81
2022/07/11 01:45:58;;;;;;;11.32;1.90;;;;;;;;;;5119618;28;20027;-80
2022/07/11 01:48:24;;;;;;;8.05;2.45;;;;;;;;;;5102785;28;20031;-81
2022/07/11 01:50:51;;;;;;;12.27;2.67;;;;;;;;;;5119876;28;20036;-81
2022/07/11 01:53:17;;;;;;;8.50;2.78;;;;;;;;;;5102528;28;20035;-81
2022/07/11 01:55:44;;;;;;;9.25;2.17;;;;;;;;;;5119685;28;20162;-81
2022/07/11 01:58:10;;;;;;;6.05;2.40;;;;;;;;;;5102180;28;20051;-81
2022/07/11 02:00:37;;;;;;;8.75;2.65;;;;;;;;;;5101957;28;20093;-81
2022/07/11 02:03:03;;;;;;;9.95;2.30;;;;;;;;;;5119614;28;20027;-81
2022/07/11 02:05:29;;;;;;;9.40;2.40;;;;;;;;;;5124804;27;20570;-81
2022/07/11 02:08:12;;;;;;;3.10;1.98;;;;;;;;;;5143452;27;20030;-81
2022/07/11 02:10:44;;;;;;;13.90;2.78;;;;;;;;;;5160702;27;20486;-80
2022/07/11 02:13:10;;;;;;;11.90;2.55;;;;;;;;;;5144200;27;20399;-84
2022/07/11 02:15:36;;;;;;;10.55;2.10;;;;;;;;;;5156220;27;20030;-80
2022/07/11 02:18:02;;;;;;;13.48;2.17;;;;;;;;;;5157155;27;20070;-82
2022/07/11 02:20:30;;;;;;;12.75;2.30;;;;;;;;;;5159374;27;20035;-82
2022/07/11 02:22:58;;;;;;;7.30;1.92;;;;;;;;;;5156736;27;20041;-82
2022/07/11 02:25:25;;;;;;;5.80;2.20;;;;;;;;;;5156584;27;20064;-82
2022/07/11 02:27:51;;;;;;;12.68;2.53;;;;;;;;;;5159108;27;20060;-82
2022/07/11 02:30:19;;;;;;;7.15;1.88;;;;;;;;;;5143559;27;20023;-79
2022/07/11 02:32:44;;;;;;;8.63;2.40;;;;;;;;;;5142916;27;20050;-79
2022/07/11 02:35:09;;;;;;;12.98;2.08;;;;;;;;;;5153324;27;20045;-79
2022/07/11 02:37:35;;;;;;;13.02;2.22;;;;;;;;;;5145257;27;20027;-80
2022/07/11 02:40:01;;;;;;;11.93;2.88;;;;;;;;;;5135959;27;20132;-79
2022/07/11 02:42:27;;;;;;;14.43;2.13;;;;;;;;;;5137149;27;20031;-79
2022/07/11 02:44:53;;;;;;;8.60;1.55;;;;;;;;;;5154483;27;20523;-79
2022/07/11 02:47:19;;;;;;;14.50;3.25;;;;;;;;;;5135803;27;20106;-79
2022/07/11 02:49:47;;;;;;;15.70;2.28;;;;;;;;;;5129378;27;20114;-81
2022/07/11 02:52:15;;;;;;;14.82;4.22;;;;;;;;;;5128086;27;20051;-78
2022/07/11 02:54:40;;;;;;;24.98;2.60;;;;;;;;;;5138181;27;20567;-77
2022/07/11 02:57:07;;;;;;;27.27;2.97;;;;;;;;;;5135223;27;20063;-77
2022/07/11 02:59:33;;;;;;;14.10;2.38;;;;;;;;;;5133648;27;20043;-76
2022/07/11 03:01:59;;;;;;;18.65;2.25;;;;;;;;;;5135142;27;20058;-76
2022/07/11 03:04:24;;;;;;;11.38;1.90;;;;;;;;;;5136078;27;20087;-77
2022/07/11 03:06:54;;;;;;;7.60;1.98;;;;;;;;;;5154325;27;20053;-77
2022/07/11 03:09:19;;;;;;;12.32;2.20;;;;;;;;;;5153780;27;20035;-76
2022/07/11 03:11:45;;;;;;;10.55;2.30;;;;;;;;;;5153951;27;20046;-77
2022/07/11 03:14:10;;;;;;;19.98;2.40;;;;;;;;;;5136793;27;20039;-76
2022/07/11 03:16:36;;;;;;;9.93;1.92;;;;;;;;;;5154304;27;20034;-76
2022/07/11 03:19:01;;;;;;;16.05;2.65;;;;;;;;;;5137005;27;20031;-76
2022/07/11 03:21:27;;;;;;;8.80;2.30;;;;;;;;;;5154563;27;20468;-76
2022/07/11 03:23:53;;;;;;;9.65;3.00;;;;;;;;;;5154151;27;20400;-76
2022/07/11 03:26:18;;;;;;;16.70;2.55;;;;;;;;;;5136451;27;20030;-78
2022/07/11 03:28:44;;;;;;;13.02;3.08;;;;;;;;;;5155007;27;20026;-76
2022/07/11 03:31:11;;;;;;;14.52;2.40;;;;;;;;;;5155254;27;20033;-76
2022/07/11 03:33:37;;;;;;;11.10;2.10;;;;;;;;;;5154218;27;20031;-76
2022/07/11 03:36:03;;;;;;;6.97;2.05;;;;;;;;;;5137713;27;20400;-76
2022/07/11 03:38:28;;;;;;;9.15;2.00;;;;;;;;;;5133290;27;20035;-76
2022/07/11 03:40:55;;;;;;;10.65;1.85;;;;;;;;;;5133095;27;20039;-76
2022/07/11 03:43:22;;;;;;;11.77;2.33;;;;;;;;;;5115915;27;20027;-76
2022/07/11 03:45:48;;;;;;;11.23;2.30;;;;;;;;;;5115856;27;20031;-76
2022/07/11 03:48:14;;;;;;;13.60;3.22;;;;;;;;;;5133333;27;20042;-76
2022/07/11 03:50:39;;;;;;;18.02;3.10;;;;;;;;;;5133175;27;20027;-76
2022/07/11 03:53:06;;;;;;;13.20;3.13;;;;;;;;;;5115999;28;20088;-76
2022/07/11 03:55:32;;;;;;;16.30;5.60;;;;;;;;;;5115791;28;20122;-76
2022/07/11 03:57:59;;;;;;;19.90;3.38;;;;;;;;;;5132977;27;20055;-76
2022/07/11 04:00:25;;;;;;;18.30;2.97;;;;;;;;;;5115837;28;20083;-76
2022/07/11 04:02:50;;;;;;;17.15;2.90;;;;;;;;;;5133162;27;20081;-77
2022/07/11 04:05:16;;;;;;;8.10;2.30;;;;;;;;;;5141545;27;20046;-76
2022/07/11 04:07:42;;;;;;;23.73;3.30;;;;;;;;;;5153552;27;20133;-76
2022/07/11 04:10:09;;;;;;;14.77;2.42;;;;;;;;;;5153306;27;20392;-76
2022/07/11 04:12:36;;;;;;;26.02;2.85;;;;;;;;;;5135890;27;20054;-77
2022/07/11 04:15:02;;;;;;;16.38;2.70;;;;;;;;;;5136040;27;20066;-76
2022/07/11 04:17:28;;;;;;;23.65;3.00;;;;;;;;;;5153219;27;20038;-77
2022/07/11 04:19:54;;;;;;;16.30;2.70;;;;;;;;;;5153334;27;20034;-77
2022/07/11 04:22:20;;;;;;;9.52;2.45;;;;;;;;;;5136259;27;20380;-77
2022/07/11 04:24:50;;;;;;;11.40;2.38;;;;;;;;;;5153423;27;20046;-76
2022/07/11 04:27:16;;;;;;;9.32;2.67;;;;;;;;;;5135629;27;20037;-76
2022/07/11 04:29:41;;;;;;;11.43;2.35;;;;;;;;;;5153590;27;20380;-76
2022/07/11 04:32:07;;;;;;;4.63;2.03;;;;;;;;;;5135857;27;20034;-76
2022/07/11 04:34:33;;;;;;;6.50;2.22;;;;;;;;;;5150015;27;20039;-76
2022/07/11 04:37:00;;;;;;;9.73;2.22;;;;;;;;;;5132514;28;20034;-77
2022/07/11 04:39:27;;;;;;;8.45;2.20;;;;;;;;;;5114332;28;20077;-77
2022/07/11 04:41:52;;;;;;;7.55;2.50;;;;;;;;;;5132545;28;20046;-76
2022/07/11 04:44:18;;;;;;;6.10;2.13;;;;;;;;;;5132121;28;20027;-76
2022/07/11 04:46:44;;;;;;;8.60;1.95;;;;;;;;;;5132295;28;20045;-77
2022/07/11 04:49:10;;;;;;;7.75;2.28;;;;;;;;;;5115093;28;20400;-76
2022/07/11 04:51:36;;;;;;;9.07;2.10;;;;;;;;;;5132663;28;20377;-77
2022/07/11 04:54:03;;;;;;;8.75;2.17;;;;;;;;;;5114630;28;20038;-76
2022/07/11 04:56:31;;;;;;;10.02;2.72;;;;;;;;;;5132053;28;20088;-76
2022/07/11 04:58:57;;;;;;;10.02;2.45;;;;;;;;;;5132453;28;20079;-76
2022/07/11 05:01:25;;;;;;;6.85;2.05;;;;;;;;;;5115009;28;20114;-77
2022/07/11 05:03:51;;;;;;;7.25;1.90;;;;;;;;;;5132260;28;20172;-77
2022/07/11 05:06:17;;;;;;;7.10;2.50;;;;;;;;;;5138938;28;20055;-79
2022/07/11 05:08:43;;;;;;;8.98;2.30;;;;;;;;;;5143316;28;20053;-78
2022/07/11 05:11:11;;;;;;;12.20;2.03;;;;;;;;;;5126396;28;20031;-78
2022/07/11 05:13:37;;;;;;;7.40;2.30;;;;;;;;;;5140586;28;20027;-79
2022/07/11 05:16:08;;;;;;;7.57;2.00;;;;;;;;;;5118937;28;20028;-79
2022/07/11 05:18:33;;;;;;;9.10;1.90;;;;;;;;;;5120508;28;20032;-79
2022/07/11 05:20:59;;;;;;;15.20;2.60;;;;;;;;;;5113875;28;20042;-79
2022/07/11 05:23:26;;;;;;;5.97;2.10;;;;;;;;;;5130089;28;20039;-79
2022/07/11 05:25:52;;;;;;;5.40;2.30;;;;;;;;;;5136992;27;20027;-79
2022/07/11 05:28:19;;;;;;;9.68;2.22;;;;;;;;;;5130001;27;20056;-79
2022/07/11 05:30:45;;;;;;;5.63;2.03;;;;;;;;;;5150071;27;20060;-78
2022/07/11 05:33:10;;;;;;;5.90;2.03;;;;;;;;;;5148005;27;20035;-80
2022/07/11 05:35:36;;;;;;;8.88;2.05;;;;;;;;;;5113279;28;20039;-78
2022/07/11 05:38:02;;;;;;;5.93;1.70;;;;;;;;;;5119704;28;20035;-78
2022/07/11 05:40:27;;;;;;;13.95;2.13;;;;;;;;;;5100596;28;20162;-78
2022/07/11 05:42:53;;;;;;;5.78;1.67;;;;;;;;;;5115948;27;20039;-78
2022/07/11 05:45:18;;;;;;;7.38;1.77;;;;;;;;;;5139149;27;20035;-76
2022/07/11 05:47:45;;;;;;;5.93;1.98;;;;;;;;;;5135402;27;20037;-79
2022/07/11 05:50:11;;;;;;;5.70;2.00;;;;;;;;;;5138127;27;20042;-78
2022/07/11 05:52:37;;;;;;;5.38;1.42;;;;;;;;;;5136422;27;20035;-79
2022/07/11 05:55:03;;;;;;;5.78;1.85;;;;;;;;;;5122840;27;20377;-78
2022/07/11 05:57:29;;;;;;;6.38;2.22;;;;;;;;;;5119144;27;20045;-77
2022/07/11 05:59:55;;;;;;;6.75;2.08;;;;;;;;;;5117949;27;20031;-76
2022/07/11 06:02:21;;;;;;;15.20;1.92;;;;;;;;;;5117747;27;20042;-77
2022/07/11 06:04:47;;;;;;;5.25;2.17;;;;;;;;;;5118370;27;20036;-78
2022/07/11 06:08:40;;;;;;;6.45;1.70;;;;;;;;;;5114830;28;20095;-77
2022/07/11 06:09:57;;;;;;;5.33;1.63;;;;;;;;;;5114374;28;20024;-76
2022/07/11 06:12:23;;;;;;;8.63;1.73;;;;;;;;;;5117687;27;20041;-78
2022/07/11 06:14:49;;;;;;;4.63;1.88;;;;;;;;;;5113615;28;20023;-77
2022/07/11 06:17:14;;;;;;;4.93;1.38;;;;;;;;;;5129741;27;20034;-78
2022/07/11 06:19:39;;;;;;;1.92;1.50;;;;;;;;;;5139652;27;20370;-76
2022/07/11 06:22:05;;;;;;;6.78;2.35;;;;;;;;;;5134695;27;20042;-76
2022/07/11 06:24:31;;;;;;;6.47;1.60;;;;;;;;;;5116393;27;20035;-77
2022/07/11 06:27:00;;;;;;;7.85;2.33;;;;;;;;;;5119479;27;20544;-77
2022/07/11 06:29:27;;;;;;;5.68;1.55;;;;;;;;;;5116427;27;20031;-77
2022/07/11 06:31:52;;;;;;;7.90;2.03;;;;;;;;;;5135964;27;20030;-76
2022/07/11 06:34:18;;;;;;;6.88;1.75;;;;;;;;;;5115995;27;20589;-76
2022/07/11 06:36:45;;;;;;;6.40;1.60;;;;;;;;;;5116297;27;20057;-77
2022/07/11 06:39:10;;;;;;;2.20;1.60;;;;;;;;;;5139976;27;20047;-79
2022/07/11 06:41:35;;;;;;;5.60;1.52;;;;;;;;;;5140558;27;20039;-79
2022/07/11 06:44:03;;;;;;;6.70;1.60;;;;;;;;;;5119857;27;20042;-77
2022/07/11 06:46:29;;;;;;;7.60;1.30;;;;;;;;;;5136756;27;20039;-78
2022/07/11 06:48:56;;;;;;;2.42;1.20;;;;;;;;;;5135526;27;20461;-77
2022/07/11 06:51:26;;;;;;;1.75;1.60;;;;;;;;;;5116791;27;20038;-77
2022/07/11 06:53:58;;;;;;;1.20;1.10;;;;;;;;;;5136241;27;20027;-79
2022/07/11 06:56:23;;;;;;;2.17;1.50;;;;;;;;;;5134343;27;20065;-77
2022/07/11 06:58:48;;;;;;;1.92;1.30;;;;;;;;;;5132215;27;20039;-76
2022/07/11 07:01:14;;;;;;;3.25;2.05;;;;;;;;;;5116409;27;20480;-76
2022/07/11 07:03:41;;;;;;;13.85;1.50;;;;;;;;;;5131889;27;20031;-76
2022/07/11 07:06:07;;;;;;;2.38;1.33;;;;;;;;;;5130994;27;20039;-76
2022/07/11 07:08:32;;;;;;;4.53;1.40;;;;;;;;;;5116531;27;20377;-76
2022/07/11 07:10:58;;;;;;;1.45;1.20;;;;;;;;;;5132242;27;20080;-77
2022/07/11 07:13:25;;;;;;;2.45;0.90;;;;;;;;;;5117426;27;20076;-78
2022/07/11 07:15:52;;;;;;;4.53;1.38;;;;;;;;;;5140630;27;20035;-76
2022/07/11 07:18:18;;;;;;;1.95;1.23;;;;;;;;;;5138978;27;20031;-79
2022/07/11 07:20:43;;;;;;;1.40;0.90;;;;;;;;;;5136406;27;20446;-75
2022/07/11 07:23:08;;;;;;;1.10;0.85;;;;;;;;;;5137965;27;20069;-78
2022/07/11 07:25:35;;;;;;;1.38;1.00;;;;;;;;;;5137642;27;20034;-78
2022/07/11 07:28:01;;;;;;;4.38;1.02;;;;;;;;;;5136317;27;20393;-77
2022/07/11 07:30:27;;;;;;;2.42;0.93;;;;;;;;;;5119174;27;20385;-79
2022/07/11 07:32:54;;;;;;;3.90;0.98;;;;;;;;;;5122084;27;20029;-78
2022/07/11 07:35:19;;;;;;;2.60;1.00;;;;;;;;;;5127437;27;20035;-79
2022/07/11 07:37:45;;;;;;;2.25;1.13;;;;;;;;;;5156317;27;20083;-77
2022/07/11 07:40:12;;;;;;;1.70;0.82;;;;;;;;;;5126508;27;20054;-78
2022/07/11 07:42:41;;;;;;;0.73;0.70;;;;;;;;;;5144926;27;20042;-78
2022/07/11 07:45:08;;;;;;;0.55;0.55;;;;;;;;;;5125792;27;20035;-78
2022/07/11 07:47:34;;;;;;;0.80;0.80;;;;;;;;;;5121838;27;20086;-78
2022/07/11 07:50:00;;;;;;;2.65;0.65;;;;;;;;;;5134339;27;20099;-78
2022/07/11 07:52:25;;;;;;;1.17;0.80;;;;;;;;;;5116662;28;20487;-77
2022/07/11 07:54:53;;;;;;;0.70;0.63;;;;;;;;;;5134532;27;20031;-77
2022/07/11 07:57:18;;;;;;;2.63;1.05;;;;;;;;;;5115208;28;20480;-77
2022/07/11 07:59:44;;;;;;;1.55;0.80;;;;;;;;;;5115696;27;20053;-77
2022/07/11 08:02:10;;;;;;;1.20;0.90;;;;;;;;;;5133109;27;20035;-78
2022/07/11 08:04:37;;;;;;;1.95;1.05;;;;;;;;;;5131903;27;20110;-77
2022/07/11 08:07:05;;;;;;;1.63;0.60;;;;;;;;;;5133268;28;20119;-78
2022/07/11 08:09:31;;;;;;;1.60;0.65;;;;;;;;;;5115903;28;20037;-76
2022/07/11 08:11:56;;;;;;;0.50;0.50;;;;;;;;;;5114962;28;20391;-77
2022/07/11 08:14:22;;;;;;;1.13;0.88;;;;;;;;;;5126857;28;20480;-77
2022/07/11 08:16:48;;;;;;;0.70;0.70;;;;;;;;;;5123451;28;20032;-77
2022/07/11 08:19:14;;;;;;;2.00;0.80;;;;;;;;;;5130308;28;20119;-80
2022/07/11 08:21:39;;;;;;;0.70;0.50;;;;;;;;;;5120976;28;20031;-80
2022/07/11 08:24:05;;;;;;;0.73;0.68;;;;;;;;;;5136941;27;20031;-79
2022/07/11 08:26:31;;;;;;;0.77;0.70;;;;;;;;;;5135504;27;20074;-78
2022/07/11 08:28:59;;;;;;;1.33;0.45;;;;;;;;;;5115524;28;20031;-76
2022/07/11 08:31:24;;;;;;;1.70;0.57;;;;;;;;;;5114528;28;20050;-76
2022/07/11 08:33:51;;;;;;;1.02;0.60;;;;;;;;;;5132979;27;20465;-77
2022/07/11 08:36:19;;;;;;;1.27;0.50;;;;;;;;;;5096225;28;20031;-76
2022/07/11 08:38:46;;;;;;;1.13;0.50;;;;;;;;;;5094526;28;20075;-77
2022/07/11 08:41:13;;;;;;;0.70;0.50;;;;;;;;;;5094966;28;20036;-77
2022/07/11 08:43:40;;;;;;;0.80;0.80;;;;;;;;;;5111939;28;20032;-77
2022/07/11 08:46:13;;;;;;;0.80;0.55;;;;;;;;;;5111792;28;20499;-77
2022/07/11 08:48:42;;;;;;;1.98;0.90;;;;;;;;;;5113078;28;20036;-77
2022/07/11 08:51:09;;;;;;;1.92;1.25;;;;;;;;;;5095432;28;20031;-77
2022/07/11 08:53:38;;;;;;;2.00;0.88;;;;;;;;;;5098536;28;20169;-77
2022/07/11 08:56:10;;;;;;;5.00;1.15;;;;;;;;;;5098731;28;20039;-77
2022/07/11 08:58:38;;;;;;;0.55;0.40;;;;;;;;;;5117953;28;20645;-76
2022/07/11 09:01:06;;;;;;;1.10;0.40;;;;;;;;;;5121369;28;20062;-79
2022/07/11 09:03:33;;;;;;;1.10;0.50;;;;;;;;;;5122481;28;20040;-79
2022/07/11 09:06:00;;;;;;;1.95;0.45;;;;;;;;;;5157620;27;20407;-83
2022/07/11 09:08:26;;;;;;;3.42;0.85;;;;;;;;;;5155269;27;20034;-80
2022/07/11 09:10:52;;;;;;;2.00;0.60;;;;;;;;;;5155676;27;20045;-80
2022/07/11 09:13:18;;;;;;;1.65;0.50;;;;;;;;;;5154680;27;20050;-82
2022/07/11 09:15:49;;;;;;;0.73;0.40;;;;;;;;;;5121813;27;20057;-81
2022/07/11 09:18:37;;;;;;;4.15;0.57;;;;;;;;;;5112167;28;20437;-81
2022/07/11 09:26:37;;;;;;;1.75;0.90;;;;;;;;;;5121645;28;20456;-83
2022/07/11 09:29:27;;;;;;;3.42;0.70;;;;;;;;;;5103726;28;20028;-82
2022/07/11 09:31:52;;;;;;;1.65;0.70;;;;;;;;;;5127498;28;20129;-80
2022/07/11 09:34:20;;;;;;;0.77;0.32;;;;;;;;;;5113262;28;20043;-81
2022/07/11 09:36:55;;;;;;;1.20;0.43;;;;;;;;;;5124122;28;20031;-82
2022/07/11 09:39:23;;;;;;;0.93;0.30;;;;;;;;;;5130646;27;20408;-80
2022/07/11 09:41:53;;;;;;;3.30;0.80;;;;;;;;;;5123810;27;20031;-81
2022/07/11 09:44:19;;;;;;;3.90;0.65;;;;;;;;;;5141019;27;20118;-82
2022/07/11 09:46:49;;;;;;;1.60;0.50;;;;;;;;;;5139850;27;20067;-84
2022/07/11 09:49:16;;;;;;;1.88;0.73;;;;;;;;;;5124359;27;20031;-84
2022/07/11 09:51:43;;;;;;;2.83;0.75;;;;;;;;;;5140790;27;20031;-81
2022/07/11 09:54:09;;;;;;;2.42;0.85;;;;;;;;;;5124448;27;20047;-85
2022/07/11 09:56:39;;;;;;;3.63;1.02;;;;;;;;;;5109855;28;20122;-84
2022/07/11 09:59:06;;;;;;;1.65;0.50;;;;;;;;;;5121730;28;20095;-84
2022/07/11 10:01:34;;;;;;;1.38;0.63;;;;;;;;;;5116766;28;20046;-87
2022/07/11 10:04:00;;;;;;;2.70;0.73;;;;;;;;;;5116868;28;20039;-84
2022/07/11 10:06:27;;;;;;;1.75;0.70;;;;;;;;;;5131802;27;20031;-85
2022/07/11 10:08:53;;;;;;;1.65;0.70;;;;;;;;;;5123958;27;20036;-87
2022/07/11 10:11:20;;;;;;;2.08;0.60;;;;;;;;;;5120109;27;20034;-84
2022/07/11 10:13:46;;;;;;;2.05;0.77;;;;;;;;;;5105614;28;20637;-80
2022/07/11 10:16:22;;;;;;;2.08;0.63;;;;;;;;;;5118287;28;20036;-82
2022/07/11 10:19:20;;;;;;;5.78;1.35;;;;;;;;;;5109760;27;20087;-80
2022/07/11 10:22:02;;;;;;;2.25;0.70;;;;;;;;;;5116566;27;20043;-79
2022/07/11 10:24:36;;;;;;;4.20;0.75;;;;;;;;;;5120763;27;20030;-80
2022/07/11 10:27:21;;;;;;;0.82;0.43;;;;;;;;;;5138787;27;20408;-79
2022/07/11 10:29:51;;;;;;;2.97;0.88;;;;;;;;;;5114799;28;20085;-80
2022/07/11 10:32:17;;;;;;;4.75;0.70;;;;;;;;;;5115629;27;20670;-79
2022/07/11 10:34:44;;;;;;;3.70;0.90;;;;;;;;;;5116511;27;20032;-79
2022/07/11 10:37:11;;;;;;;2.33;1.05;;;;;;;;;;5104303;28;20027;-78
2022/07/11 10:39:38;;;;;;;1.85;0.60;;;;;;;;;;5100018;28;20047;-77
2022/07/11 10:42:09;;;;;;;4.20;0.88;;;;;;;;;;5116442;28;20043;-81
2022/07/11 10:44:49;;;;;;;1.05;0.60;;;;;;;;;;5099312;28;20028;-86
2022/07/11 10:47:40;;;;;;;3.95;0.93;;;;;;;;;;5118586;27;20035;-84
2022/07/11 10:50:24;;;;;;;1.33;0.63;;;;;;;;;;5119794;27;20037;-87
2022/07/11 10:52:56;;;;;;;3.08;0.55;;;;;;;;;;5117054;28;20047;-78
2022/07/11 10:55:30;;;;;;;1.35;0.57;;;;;;;;;;5115487;28;20039;-80
2022/07/11 10:58:05;;;;;;;1.13;0.60;;;;;;;;;;5114201;28;20572;-77
2022/07/11 11:00:31;;;;;;;1.95;0.80;;;;;;;;;;5097943;28;20031;-76
2022/07/11 11:03:26;;;;;;;4.15;0.75;;;;;;;;;;5116753;28;20168;-81
2022/07/11 11:05:52;;;;;;;1.10;0.70;;;;;;;;;;5099358;27;20523;-84
2022/07/11 11:08:46;;;;;;;1.35;0.52;;;;;;;;;;5129316;27;20036;-84
2022/07/11 11:11:22;;;;;;;0.73;0.50;;;;;;;;;;5115384;27;20056;-84
2022/07/11 11:14:17;;;;;;;1.23;0.60;;;;;;;;;;5145304;27;20062;-83
2022/07/11 11:16:43;;;;;;;0.80;0.53;;;;;;;;;;5144140;27;20035;-84
2022/07/11 11:19:46;;;;;;;3.65;0.60;;;;;;;;;;5143505;27;20066;-84
2022/07/11 11:22:16;;;;;;;2.20;0.80;;;;;;;;;;5125149;27;20153;-83
2022/07/11 11:24:42;;;;;;;2.25;0.50;;;;;;;;;;5124787;27;20460;-84
2022/07/11 11:27:16;;;;;;;2.30;0.52;;;;;;;;;;5125456;27;20031;-84
2022/07/11 11:29:42;;;;;;;2.40;0.65;;;;;;;;;;5123666;27;20126;-84
2022/07/11 11:32:10;;;;;;;1.75;0.68;;;;;;;;;;5129768;27;20067;-83
2022/07/11 11:34:41;;;;;;;0.93;0.43;;;;;;;;;;5144945;27;20123;-84
2022/07/11 11:37:07;;;;;;;1.48;0.50;;;;;;;;;;5147468;27;20056;-84
2022/07/11 11:39:42;;;;;;;2.58;0.90;;;;;;;;;;5163103;27;20047;-84
2022/07/11 11:42:16;;;;;;;3.53;0.88;;;;;;;;;;5161500;27;20030;-83
2022/07/11 11:45:01;;;;;;;2.05;0.70;;;;;;;;;;5143961;27;20061;-84
2022/07/11 11:47:30;;;;;;;0.98;0.70;;;;;;;;;;5142373;27;20042;-83
2022/07/11 11:49:55;;;;;;;0.60;0.60;;;;;;;;;;5161103;27;20476;-83
2022/07/11 11:52:24;;;;;;;1.27;0.82;;;;;;;;;;5159819;27;20030;-82
2022/07/11 11:54:55;;;;;;;0.98;0.70;;;;;;;;;;5159026;27;20039;-82
2022/07/11 11:57:23;;;;;;;1.95;0.90;;;;;;;;;;5158992;27;20030;-82
2022/07/11 11:59:50;;;;;;;2.50;0.65;;;;;;;;;;5142002;27;20045;-83
2022/07/11 12:02:25;;;;;;;2.88;0.93;;;;;;;;;;5141025;27;20057;-77
2022/07/11 12:04:52;;;;;;;1.27;0.93;;;;;;;;;;5129991;27;20035;-77
2022/07/11 12:07:29;;;;;;;3.58;0.90;;;;;;;;;;5129875;27;20031;-76
2022/07/11 12:09:57;;;;;;;3.45;0.60;;;;;;;;;;5103866;28;20497;-81
2022/07/11 12:12:44;;;;;;;4.00;0.75;;;;;;;;;;5129651;28;20024;-81
2022/07/11 12:18:38;;;;;;;2.08;0.80;;;;;;;;;;5092309;27;20043;-80
2022/07/11 12:21:12;;;;;;;2.05;0.60;;;;;;;;;;5118397;28;20046;-82
2022/07/11 12:23:37;;;;;;;0.82;0.82;;;;;;;;;;5137829;27;20057;-78
2022/07/11 12:26:03;;;;;;;3.92;0.93;;;;;;;;;;5111397;28;20079;-80
2022/07/11 12:28:29;;;;;;;11.80;2.00;;;;;;;;;;5101063;28;20074;-81
2022/07/11 12:30:56;;;;;;;1.73;0.88;;;;;;;;;;5110668;27;20059;-80
2022/07/11 12:33:23;;;;;;;1.13;0.65;;;;;;;;;;5139402;27;20146;-78
2022/07/11 12:35:57;;;;;;;2.47;0.63;;;;;;;;;;5124728;27;20481;-79
2022/07/11 12:38:23;;;;;;;1.45;0.60;;;;;;;;;;5103351;28;20031;-81
2022/07/11 12:40:59;;;;;;;3.50;1.10;;;;;;;;;;5119295;28;20060;-82
2022/07/11 12:46:36;;;;;;;0.40;0.40;;;;;;;;;;5119717;28;20032;-81
2022/07/11 12:49:07;;;;;;;1.88;0.80;;;;;;;;;;5102455;28;20106;-81
2022/07/11 12:51:40;;;;;;;1.48;0.60;;;;;;;;;;5101255;28;20523;-80
2022/07/11 12:54:11;;;;;;;1.00;0.63;;;;;;;;;;5101942;28;20039;-80
2022/07/11 12:56:39;;;;;;;0.90;0.75;;;;;;;;;;5102109;28;20488;-80
2022/07/11 12:59:06;;;;;;;1.52;0.80;;;;;;;;;;5099673;28;20031;-78
2022/07/11 13:01:33;;;;;;;0.85;0.82;;;;;;;;;;5117107;28;20067;-79
2022/07/11 13:04:00;;;;;;;0.70;0.55;;;;;;;;;;5100163;28;20575;-79
2022/07/11 13:09:14;;;;;;;4.28;0.80;;;;;;;;;;5119101;27;20039;-78
2022/07/11 13:11:40;;;;;;;1.10;0.75;;;;;;;;;;5100816;28;20461;-78
2022/07/11 13:15:08;;;;;;;1.65;0.90;;;;;;;;;;5099388;28;20040;-80
2022/07/11 13:16:53;;;;;;;0.85;0.60;;;;;;;;;;5118832;28;20031;-79
2022/07/11 13:19:19;;;;;;;0.95;0.65;;;;;;;;;;5101165;28;20062;-79
2022/07/11 13:21:44;;;;;;;1.50;0.65;;;;;;;;;;5116963;28;20031;-79
2022/07/11 13:24:11;;;;;;;3.03;0.70;;;;;;;;;;5099472;28;20508;-79
2022/07/11 13:26:37;;;;;;;3.15;0.98;;;;;;;;;;5116600;28;20126;-78
2022/07/11 13:29:02;;;;;;;0.63;0.50;;;;;;;;;;5117022;28;20085;-78
2022/07/11 13:31:28;;;;;;;4.63;0.70;;;;;;;;;;5099785;28;20488;-79
2022/07/11 13:33:56;;;;;;;1.27;0.52;;;;;;;;;;5116682;28;20043;-78
2022/07/11 13:36:21;;;;;;;0.85;0.63;;;;;;;;;;5117947;28;20084;-78
2022/07/11 13:38:49;;;;;;;1.10;0.63;;;;;;;;;;5116668;27;20040;-78
2022/07/11 13:41:16;;;;;;;0.75;0.75;;;;;;;;;;5119540;27;20031;-78
2022/07/11 13:43:42;;;;;;;3.60;2.40;;;;;;;;;;5138116;27;20030;-78
2022/07/11 13:46:09;;;;;;;1.60;0.88;;;;;;;;;;5119428;27;20069;-79
2022/07/11 13:48:35;;;;;;;0.73;0.50;;;;;;;;;;5119865;27;20480;-78
2022/07/11 13:51:01;;;;;;;1.25;0.75;;;;;;;;;;5119841;27;20034;-79
2022/07/11 13:53:27;;;;;;;0.70;0.70;;;;;;;;;;5139018;27;20035;-78
2022/07/11 13:55:53;;;;;;;0.43;0.43;;;;;;;;;;5119208;27;20118;-80
2022/07/11 13:58:25;;;;;;;2.60;0.40;;;;;;;;;;5136559;27;20460;-79
2022/07/11 14:00:52;;;;;;;5.50;0.73;;;;;;;;;;5119647;27;20468;-78
2022/07/11 14:03:18;;;;;;;0.90;0.52;;;;;;;;;;5136647;27;20441;-78
2022/07/11 14:05:44;;;;;;;0.98;0.70;;;;;;;;;;5141016;27;20073;-78
2022/07/11 14:08:11;;;;;;;1.50;0.68;;;;;;;;;;5158559;27;20039;-80
2022/07/11 14:10:37;;;;;;;2.35;0.63;;;;;;;;;;5140412;27;20031;-78
2022/07/11 14:13:04;;;;;;;0.98;0.60;;;;;;;;;;5157732;27;20061;-79
2022/07/11 14:15:29;;;;;;;0.73;0.45;;;;;;;;;;5138842;27;20091;-78
2022/07/11 14:17:56;;;;;;;1.75;0.63;;;;;;;;;;5155871;27;20373;-79
2022/07/11 14:20:22;;;;;;;1.65;0.70;;;;;;;;;;5140535;27;20125;-79
2022/07/11 14:22:48;;;;;;;0.90;0.90;;;;;;;;;;5156553;27;20121;-80
2022/07/11 14:25:14;;;;;;;4.22;0.90;;;;;;;;;;5139920;27;20129;-79
2022/07/11 14:27:41;;;;;;;1.13;0.80;;;;;;;;;;5139548;27;20039;-78
2022/07/11 14:30:08;;;;;;;2.53;0.70;;;;;;;;;;5140009;27;20554;-78
2022/07/11 14:32:34;;;;;;;0.80;0.80;;;;;;;;;;5139543;27;20026;-78
2022/07/11 14:35:00;;;;;;;1.25;0.90;;;;;;;;;;5136410;27;20036;-78
2022/07/11 14:37:26;;;;;;;0.85;0.55;;;;;;;;;;5098411;28;20036;-78
2022/07/11 14:39:52;;;;;;;0.60;0.60;;;;;;;;;;5114752;28;20378;-78
2022/07/11 14:42:18;;;;;;;0.88;0.88;;;;;;;;;;5132916;27;20031;-80
2022/07/11 14:44:44;;;;;;;1.02;0.80;;;;;;;;;;5131918;27;20035;-78
2022/07/11 14:47:09;;;;;;;3.80;0.95;;;;;;;;;;5131833;27;20031;-77
2022/07/11 14:49:35;;;;;;;3.05;1.10;;;;;;;;;;5115016;27;20035;-78
2022/07/11 14:52:02;;;;;;;2.50;0.80;;;;;;;;;;5132193;27;20107;-80
2022/07/11 14:54:32;;;;;;;2.65;0.88;;;;;;;;;;5103116;28;20057;-82
2022/07/11 14:56:58;;;;;;;4.47;0.90;;;;;;;;;;5101671;28;20031;-81
2022/07/11 14:59:24;;;;;;;1.33;1.23;;;;;;;;;;5118169;28;20031;-81
2022/07/11 15:01:51;;;;;;;1.15;1.05;;;;;;;;;;5102503;28;20057;-81